Time;durP1;ratioP1;P1;durP2;ratioP2;P2;SDS_P1;SDS_P2;PMS_P1;PMS_P2;Temp;Humidity;BMP_temperature;BMP_pressure;BME280_temperature;BME280_humidity;BME280_pressure;Samples;Min_cycle;Max_cycle;Signal;HPM_P1;HPM_P2
2023/08/22 00:00:31;;;;;;;3.67;2.60;;;23.00;67.00;;;25.75;44.80;101979.03;5032678;28;20218;-62
2023/08/22 00:03:00;;;;;;;8.47;3.17;;;23.00;66.80;;;25.72;44.01;101976.81;5033420;28;20225;-62
2023/08/22 00:05:27;;;;;;;4.97;2.70;;;23.00;66.80;;;25.65;44.90;101988.84;5034201;28;20206;-63
2023/08/22 00:07:55;;;;;;;4.33;2.67;;;22.90;66.60;;;25.55;44.82;101982.19;5034138;28;20191;-61
2023/08/22 00:10:22;;;;;;;6.00;2.87;;;22.90;66.90;;;25.47;45.17;101977.19;5033584;28;20206;-61
2023/08/22 00:12:49;;;;;;;4.87;2.40;;;22.80;66.80;;;25.39;45.28;101974.84;5033997;28;20190;-62
2023/08/22 00:15:16;;;;;;;3.00;2.33;;;22.80;66.90;;;25.31;44.77;101969.88;5034499;28;20198;-61
2023/08/22 00:17:44;;;;;;;5.97;2.93;;;22.70;67.00;;;25.23;45.38;101967.56;5034209;28;20265;-61
2023/08/22 00:20:13;;;;;;;5.40;2.80;;;22.70;67.20;;;25.19;45.36;101955.63;5033962;28;20303;-61
2023/08/22 00:22:40;;;;;;;3.80;1.80;;;22.60;67.10;;;25.18;44.98;101953.16;5033216;28;20210;-62
2023/08/22 00:25:10;;;;;;;6.03;2.60;;;22.60;67.60;;;25.22;44.84;101955.13;5033757;28;20199;-61
2023/08/22 00:27:38;;;;;;;4.27;2.83;;;22.60;67.80;;;25.27;45.35;101962.50;5033783;28;20218;-64
2023/08/22 00:30:07;;;;;;;4.43;2.20;;;22.60;67.70;;;25.26;45.28;101966.25;5033650;28;20272;-62
2023/08/22 00:32:35;;;;;;;3.30;2.50;;;22.50;67.40;;;25.19;44.92;101970.97;5033775;28;20222;-61
2023/08/22 00:35:02;;;;;;;5.17;2.50;;;22.50;67.30;;;25.15;44.63;101961.75;5014740;28;20199;-62
2023/08/22 00:37:31;;;;;;;8.37;2.70;;;22.50;67.40;;;25.09;45.29;101949.22;5029272;28;20302;-61
2023/08/22 00:40:00;;;;;;;3.00;2.13;;;22.40;67.40;;;25.06;44.97;101938.91;5016336;28;20256;-62
2023/08/22 00:42:29;;;;;;;3.13;2.23;;;22.40;67.50;;;25.05;44.96;101954.28;5033175;28;20198;-61
2023/08/22 00:44:56;;;;;;;4.07;2.30;;;22.40;67.70;;;25.07;45.55;101949.47;5033553;28;20285;-62
2023/08/22 00:47:23;;;;;;;3.47;2.30;;;22.40;67.80;;;25.05;45.13;101954.28;5033496;28;20190;-62
2023/08/22 00:49:51;;;;;;;4.10;2.60;;;22.40;67.90;;;25.00;45.52;101956.88;5033372;28;20222;-62
2023/08/22 00:52:19;;;;;;;5.10;2.63;;;22.30;68.90;;;24.96;45.73;101960.28;5033376;28;20195;-61
2023/08/22 00:54:49;;;;;;;4.10;2.50;;;22.30;68.10;;;24.94;45.83;101960.50;5033451;28;20197;-62
2023/08/22 00:57:16;;;;;;;4.07;2.37;;;22.30;68.50;;;24.92;45.93;101949.16;5033222;28;20213;-62
2023/08/22 00:59:44;;;;;;;3.90;1.90;;;22.30;68.40;;;24.95;45.68;101937.09;5032367;28;20272;-61
2023/08/22 01:02:11;;;;;;;3.17;2.30;;;22.30;68.50;;;25.02;45.44;101943.16;5032267;28;20210;-61
2023/08/22 01:04:38;;;;;;;3.93;1.73;;;22.30;68.60;;;25.08;45.23;101953.78;5032231;28;20187;-61
2023/08/22 01:07:20;;;;;;;5.20;2.23;;;22.30;68.50;;;25.08;45.19;101937.59;5033493;28;20187;-63
2023/08/22 01:10:00;;;;;;;3.43;2.00;;;22.30;68.30;;;25.10;44.82;101940.09;5033299;28;20679;-61
2023/08/22 01:12:37;;;;;;;2.67;2.20;;;22.40;68.50;;;25.16;44.70;101936.41;5032176;28;20206;-60
2023/08/22 01:15:18;;;;;;;5.07;2.77;;;22.40;68.40;;;25.17;44.77;101925.41;5035633;28;20279;-62
2023/08/22 01:17:48;;;;;;;2.43;2.07;;;22.40;68.30;;;25.23;45.29;101907.41;5037410;28;20222;-60
2023/08/22 01:20:16;;;;;;;3.87;1.90;;;22.40;68.20;;;25.25;45.39;101906.13;5036902;28;20698;-62
2023/08/22 01:22:45;;;;;;;3.30;1.93;;;22.50;68.50;;;25.32;45.31;101884.38;5036720;28;20194;-62
2023/08/22 01:25:13;;;;;;;3.10;1.93;;;22.50;68.70;;;25.37;44.98;101866.44;5037310;28;20230;-64
2023/08/22 01:27:54;;;;;;;3.17;2.30;;;22.50;68.60;;;25.38;45.20;101872.66;5023555;28;20253;-60
2023/08/22 01:30:32;;;;;;;6.13;2.10;;;22.60;68.40;;;25.41;44.60;101874.88;5028093;28;20785;-64
2023/08/22 01:33:11;;;;;;;3.80;2.30;;;22.60;68.30;;;25.43;44.88;101870.03;5019728;28;20289;-58
2023/08/22 01:35:43;;;;;;;3.20;2.13;;;22.60;67.80;;;25.43;44.12;101876.25;5019099;28;20218;-61
2023/08/22 01:38:14;;;;;;;5.93;2.40;;;22.70;67.70;;;25.46;44.56;101877.66;5036961;28;20218;-62
2023/08/22 01:40:41;;;;;;;4.10;2.23;;;22.70;67.80;;;25.48;44.74;101873.66;5036612;28;20242;-60
2023/08/22 01:43:09;;;;;;;3.23;2.20;;;22.70;67.80;;;25.51;44.81;101866.94;5035571;28;20210;-60
2023/08/22 01:45:36;;;;;;;5.43;2.93;;;22.70;67.80;;;25.47;44.78;101872.03;5036622;28;20202;-61
2023/08/22 01:48:04;;;;;;;3.43;2.57;;;22.70;67.80;;;25.40;45.05;101876.72;5035082;28;20575;-61
2023/08/22 01:50:32;;;;;;;3.43;2.10;;;22.70;67.90;;;25.34;45.20;101866.91;5035143;28;20218;-62
2023/08/22 01:52:59;;;;;;;3.53;2.27;;;22.70;67.90;;;25.26;45.25;101864.63;5036544;28;20206;-59
2023/08/22 01:55:28;;;;;;;3.13;2.00;;;22.60;68.20;;;25.19;45.39;101861.28;5035799;28;20234;-60
2023/08/22 01:57:55;;;;;;;4.30;2.53;;;22.60;68.30;;;25.12;45.83;101874.09;5036036;28;20217;-61
2023/08/22 02:00:22;;;;;;;4.40;2.37;;;22.50;68.60;;;24.99;46.20;101862.78;5036311;28;20214;-62
2023/08/22 02:02:49;;;;;;;4.00;2.73;;;22.40;69.20;;;24.86;45.82;101848.53;5036439;28;20204;-61
2023/08/22 02:05:16;;;;;;;6.40;2.20;;;22.30;69.20;;;24.83;45.93;101837.44;5035746;28;20203;-63
2023/08/22 02:07:44;;;;;;;3.57;2.33;;;22.30;69.80;;;24.80;46.29;101851.41;5036731;28;20593;-61
2023/08/22 02:10:11;;;;;;;4.90;2.17;;;22.20;69.80;;;24.76;46.33;101864.53;5036397;28;20206;-61
2023/08/22 02:12:40;;;;;;;7.60;2.40;;;22.20;70.20;;;24.71;46.27;101871.66;5036603;28;20241;-60
2023/08/22 02:15:07;;;;;;;3.43;2.53;;;22.10;70.20;;;24.63;46.82;101880.94;5036971;28;20582;-59
2023/08/22 02:17:34;;;;;;;4.83;2.60;;;22.00;70.40;;;24.57;47.06;101871.13;5036608;28;20676;-59
2023/08/22 02:20:04;;;;;;;4.97;2.57;;;22.00;70.50;;;24.58;47.20;101866.56;5034612;28;20679;-61
2023/08/22 02:22:31;;;;;;;3.33;2.33;;;22.00;70.70;;;24.63;46.91;101880.13;5032935;28;20524;-61
2023/08/22 02:24:58;;;;;;;5.07;2.23;;;22.00;70.70;;;24.67;46.51;101892.06;5015992;28;20200;-60
2023/08/22 02:27:25;;;;;;;3.57;2.30;;;22.00;70.90;;;24.67;46.43;101889.38;5015752;28;20242;-62
2023/08/22 02:29:53;;;;;;;3.30;2.40;;;22.00;70.60;;;24.66;46.84;101882.34;5023071;28;20238;-62
2023/08/22 02:32:20;;;;;;;3.80;2.30;;;21.90;70.50;;;24.60;46.28;101884.13;5036301;28;20569;-60
2023/08/22 02:34:47;;;;;;;4.13;2.87;;;21.90;70.60;;;24.54;46.44;101879.69;5018746;28;20223;-60
2023/08/22 02:37:14;;;;;;;4.10;2.37;;;21.90;70.60;;;24.51;46.20;101872.06;5017377;28;20721;-61
2023/08/22 02:39:41;;;;;;;5.83;2.40;;;21.90;70.60;;;24.57;46.46;101878.41;5035618;28;20274;-58
2023/08/22 02:42:09;;;;;;;2.20;1.97;;;21.90;71.30;;;24.66;46.46;101868.88;5035410;28;20226;-61
2023/08/22 02:44:36;;;;;;;5.93;2.63;;;21.90;71.30;;;24.73;46.51;101862.28;5035602;28;20187;-61
2023/08/22 02:47:05;;;;;;;3.23;2.47;;;21.90;71.30;;;24.81;46.65;101870.03;5034504;28;20278;-61
2023/08/22 02:49:32;;;;;;;4.67;2.30;;;22.00;71.10;;;24.87;46.27;101876.31;5034064;28;20214;-63
2023/08/22 02:51:59;;;;;;;6.10;2.37;;;22.10;70.80;;;24.90;45.45;101870.44;5035288;28;20590;-62
2023/08/22 02:54:26;;;;;;;4.93;2.33;;;22.10;70.20;;;24.89;45.76;101868.81;5035787;28;20281;-62
2023/08/22 02:56:53;;;;;;;3.63;2.20;;;22.10;69.90;;;24.88;45.39;101875.25;5035417;28;20613;-62
2023/08/22 02:59:20;;;;;;;4.63;2.20;;;22.10;69.80;;;24.89;46.10;101882.28;5035236;28;20536;-60
2023/08/22 03:01:47;;;;;;;2.63;2.43;;;22.10;70.10;;;24.90;45.95;101892.00;5035098;28;20299;-60
2023/08/22 03:04:15;;;;;;;4.33;2.97;;;22.10;70.00;;;24.88;45.83;101878.78;5034830;28;20197;-59
2023/08/22 03:06:42;;;;;;;4.00;2.40;;;22.10;70.00;;;24.85;45.70;101871.19;5036579;28;20190;-60
2023/08/22 03:09:09;;;;;;;3.23;2.07;;;22.10;69.90;;;24.88;46.27;101877.97;5038727;28;20195;-62
2023/08/22 03:11:37;;;;;;;4.23;2.77;;;22.10;70.40;;;24.92;46.16;101857.56;5035281;28;20233;-63
2023/08/22 03:14:04;;;;;;;4.27;2.10;;;22.10;70.40;;;24.97;46.32;101865.72;5035275;28;20277;-61
2023/08/22 03:16:31;;;;;;;3.80;2.37;;;22.20;70.60;;;25.01;45.36;101869.56;5035265;28;20201;-62
2023/08/22 03:18:58;;;;;;;3.37;2.40;;;22.20;70.20;;;24.98;45.86;101872.75;5031043;28;20289;-62
2023/08/22 03:21:27;;;;;;;4.13;2.40;;;22.20;70.10;;;24.95;45.49;101881.31;5015462;28;20639;-62
2023/08/22 03:23:54;;;;;;;3.57;2.50;;;22.20;70.20;;;24.93;45.80;101871.84;5014236;28;20696;-61
2023/08/22 03:26:21;;;;;;;5.47;2.47;;;22.20;70.00;;;24.89;45.49;101875.00;5023445;28;20194;-61
2023/08/22 03:28:48;;;;;;;4.67;2.10;;;22.20;70.00;;;24.87;46.22;101865.53;5034988;28;20198;-61
2023/08/22 03:31:15;;;;;;;4.13;2.77;;;22.10;70.10;;;24.89;46.15;101855.34;5020070;28;20249;-60
2023/08/22 03:33:42;;;;;;;4.67;2.20;;;22.20;70.50;;;24.88;45.83;101861.78;5029827;28;20202;-61
2023/08/22 03:36:09;;;;;;;3.87;2.60;;;22.10;70.20;;;24.89;45.50;101858.03;5034601;28;20301;-60
2023/08/22 03:38:38;;;;;;;2.93;2.43;;;22.10;71.00;;;24.88;46.02;101861.78;5033249;28;20230;-61
2023/08/22 03:41:05;;;;;;;4.53;2.50;;;22.10;70.10;;;24.84;46.15;101847.97;5034395;28;20310;-60
2023/08/22 03:43:32;;;;;;;2.87;2.20;;;22.10;70.40;;;24.84;45.90;101844.50;5034123;28;20199;-60
2023/08/22 03:45:59;;;;;;;4.27;2.40;;;22.10;70.40;;;24.83;46.04;101840.16;5033883;28;20245;-62
2023/08/22 03:48:26;;;;;;;2.97;2.63;;;22.10;70.60;;;24.79;46.53;101847.88;5033958;28;20666;-62
2023/08/22 03:50:53;;;;;;;2.90;2.40;;;22.00;70.70;;;24.70;46.38;101838.53;5034513;28;20592;-61
2023/08/22 03:53:22;;;;;;;5.80;2.97;;;22.00;70.60;;;24.63;46.54;101845.09;5034728;28;20190;-62
2023/08/22 03:55:50;;;;;;;3.00;2.17;;;21.90;71.60;;;24.58;46.45;101850.41;5034394;28;20273;-62
2023/08/22 03:58:18;;;;;;;2.90;2.47;;;21.90;71.10;;;24.55;46.45;101837.44;5034167;28;20206;-61
2023/08/22 04:00:45;;;;;;;2.90;2.40;;;21.90;71.30;;;24.55;46.50;101851.72;5033343;28;20214;-61
2023/08/22 04:03:12;;;;;;;3.20;2.90;;;21.80;71.30;;;24.55;47.07;101845.50;5034321;28;21060;-61
2023/08/22 04:05:42;;;;;;;3.10;1.90;;;21.80;71.40;;;24.57;46.70;101846.06;5034211;28;20238;-61
2023/08/22 04:08:09;;;;;;;2.83;1.90;;;21.80;71.60;;;24.61;46.56;101850.75;5032850;28;20213;-61
2023/08/22 04:10:36;;;;;;;4.60;2.60;;;21.80;72.00;;;24.71;47.11;101844.72;5033487;28;20281;-61
2023/08/22 04:13:04;;;;;;;4.73;2.37;;;21.80;72.10;;;24.79;46.50;101849.78;5033605;28;20198;-60
2023/08/22 04:15:35;;;;;;;6.20;2.60;;;21.90;71.90;;;24.84;46.39;101844.50;5032868;28;20357;-60
2023/08/22 04:18:02;;;;;;;3.03;2.10;;;21.90;71.70;;;24.91;46.22;101845.16;5033763;28;20578;-61
2023/08/22 04:20:30;;;;;;;2.60;2.10;;;22.00;71.70;;;25.00;45.87;101838.31;5032995;28;20381;-60
2023/08/22 04:22:57;;;;;;;4.37;2.20;;;22.10;71.70;;;25.07;45.82;101838.16;5033919;28;20282;-61
2023/08/22 04:25:24;;;;;;;5.20;2.30;;;22.10;71.50;;;25.09;45.92;101831.44;5033743;28;20221;-60
2023/08/22 04:27:53;;;;;;;2.73;2.47;;;22.20;71.40;;;25.10;45.65;101833.09;5033461;28;20195;-64
2023/08/22 04:30:22;;;;;;;3.33;2.50;;;22.20;71.10;;;25.13;46.10;101837.97;5033343;28;20336;-61
2023/08/22 04:32:49;;;;;;;4.53;3.33;;;22.30;71.30;;;25.15;46.28;101835.06;5033766;28;20660;-62
2023/08/22 04:35:16;;;;;;;5.13;3.03;;;22.30;71.20;;;25.16;46.18;101836.69;5033832;28;20266;-62
2023/08/22 04:37:44;;;;;;;9.40;2.80;;;22.30;71.10;;;25.16;46.21;101842.91;5033039;28;20246;-62
2023/08/22 04:40:11;;;;;;;5.77;2.60;;;22.30;71.10;;;25.17;46.08;101838.31;5033078;28;20579;-62
2023/08/22 04:42:38;;;;;;;4.17;2.70;;;22.30;71.10;;;25.18;45.86;101840.75;5032977;28;20241;-61
2023/08/22 04:45:07;;;;;;;5.50;2.40;;;22.30;71.10;;;25.18;45.75;101838.06;5033213;28;20194;-61
2023/08/22 04:47:35;;;;;;;2.90;2.30;;;22.30;71.10;;;25.18;46.18;101827.28;5033109;28;20187;-62
2023/08/22 04:50:03;;;;;;;3.47;2.40;;;22.30;71.10;;;25.18;46.23;101829.16;5013257;28;20238;-61
2023/08/22 04:52:30;;;;;;;3.40;2.90;;;22.30;71.30;;;25.18;45.73;101823.78;5012528;28;20205;-61
2023/08/22 04:54:57;;;;;;;4.03;2.87;;;22.30;71.40;;;25.21;46.18;101818.72;5019861;28;20222;-61
2023/08/22 04:57:24;;;;;;;3.40;3.03;;;22.30;71.30;;;25.23;45.87;101821.16;5033718;28;20633;-62
2023/08/22 04:59:53;;;;;;;2.93;2.20;;;22.40;71.20;;;25.23;46.19;101824.69;5033037;28;20206;-61
2023/08/22 05:02:24;;;;;;;4.27;2.47;;;22.40;72.20;;;25.25;45.65;101836.03;5033984;28;20189;-62
2023/08/22 05:04:53;;;;;;;4.43;2.60;;;22.40;71.40;;;25.28;46.32;101829.34;5034000;28;20214;-61
2023/08/22 05:07:20;;;;;;;3.63;2.90;;;22.40;71.30;;;25.27;45.13;101825.81;5033325;28;20221;-62
2023/08/22 05:09:47;;;;;;;3.73;2.93;;;22.40;70.50;;;25.23;45.13;101827.38;5032885;28;20221;-61
2023/08/22 05:12:14;;;;;;;5.40;3.20;;;22.40;70.30;;;25.15;45.42;101827.75;5021600;28;20563;-61
2023/08/22 05:14:41;;;;;;;3.30;2.70;;;22.40;70.20;;;25.14;45.86;101849.59;5013523;28;20206;-62
2023/08/22 05:17:08;;;;;;;4.30;2.70;;;22.30;70.30;;;25.15;45.25;101853.94;5013609;28;20225;-61
2023/08/22 05:19:36;;;;;;;2.30;2.10;;;22.30;70.30;;;25.16;45.78;101853.69;5016721;28;20222;-60
2023/08/22 05:22:04;;;;;;;3.77;2.70;;;22.30;70.50;;;25.22;46.02;101852.69;5033167;28;20193;-62
2023/08/22 05:24:32;;;;;;;5.10;2.93;;;22.30;71.00;;;25.30;46.01;101852.28;5032573;28;20194;-61
2023/08/22 05:26:59;;;;;;;5.03;2.60;;;22.40;71.30;;;25.38;45.75;101846.50;5032360;28;20229;-62
2023/08/22 05:29:26;;;;;;;4.13;2.80;;;22.40;71.10;;;25.43;45.19;101843.91;5032456;28;20245;-65
2023/08/22 05:31:53;;;;;;;4.63;2.90;;;22.50;71.00;;;25.47;45.85;101850.44;5032824;28;20218;-65
2023/08/22 05:34:20;;;;;;;3.20;2.90;;;22.50;70.60;;;25.48;45.69;101857.47;5033697;28;20191;-62
2023/08/22 05:36:47;;;;;;;5.77;3.50;;;22.60;70.60;;;25.48;45.49;101851.28;5032733;28;20186;-62
2023/08/22 05:39:16;;;;;;;5.33;2.80;;;22.60;70.50;;;25.48;45.61;101851.28;5033234;28;20215;-58
2023/08/22 05:41:43;;;;;;;5.07;2.70;;;22.60;70.60;;;25.47;45.47;101847.75;5032911;28;20198;-62
2023/08/22 05:44:10;;;;;;;4.70;2.80;;;22.60;70.60;;;25.47;45.71;101850.44;5033070;28;20774;-60
2023/08/22 05:46:37;;;;;;;3.43;3.13;;;22.60;70.60;;;25.48;45.24;101845.88;5032774;28;20273;-59
2023/08/22 05:49:04;;;;;;;5.37;2.83;;;22.60;70.60;;;25.47;45.98;101845.06;5034203;28;20543;-61
2023/08/22 05:51:31;;;;;;;4.20;2.90;;;22.60;70.80;;;25.51;45.75;101840.78;5032761;28;20228;-62
2023/08/22 05:53:58;;;;;;;4.27;3.30;;;22.60;70.90;;;25.55;45.84;101838.44;5032685;28;20199;-63
2023/08/22 05:56:26;;;;;;;4.30;3.40;;;22.60;70.80;;;25.54;44.97;101837.63;5033117;28;20277;-62
2023/08/22 05:58:53;;;;;;;3.90;3.00;;;22.70;70.40;;;25.49;45.51;101842.94;5031871;28;20225;-65
2023/08/22 06:01:21;;;;;;;5.73;2.90;;;22.70;70.30;;;25.47;45.67;101838.84;5033144;28;20218;-61
2023/08/22 06:03:48;;;;;;;5.43;2.87;;;22.60;70.40;;;25.46;45.45;101837.19;5035647;28;20659;-61
2023/08/22 06:06:15;;;;;;;3.50;2.90;;;22.60;70.60;;;25.48;45.71;101832.41;5036355;28;20273;-59
2023/08/22 06:08:42;;;;;;;3.67;2.83;;;22.60;70.60;;;25.50;45.25;101839.19;5035655;28;20199;-61
2023/08/22 06:11:09;;;;;;;5.63;2.53;;;22.60;71.10;;;25.55;45.28;101831.13;5035986;28;20222;-60
2023/08/22 06:13:38;;;;;;;4.97;3.03;;;22.60;70.80;;;25.60;45.02;101835.00;5035771;28;20195;-60
2023/08/22 06:16:05;;;;;;;5.53;2.87;;;22.70;70.70;;;25.63;45.33;101831.78;5036019;28;20191;-61
2023/08/22 06:18:32;;;;;;;3.13;2.83;;;22.70;70.70;;;25.63;45.16;101826.41;5035575;28;20206;-61
2023/08/22 06:20:59;;;;;;;5.87;4.33;;;22.70;70.40;;;25.65;45.16;101832.38;5036317;28;20229;-60
2023/08/22 06:23:27;;;;;;;5.10;3.20;;;22.70;70.50;;;25.65;45.52;101835.09;5036441;28;20209;-62
2023/08/22 06:25:54;;;;;;;5.73;3.40;;;22.70;70.40;;;25.65;45.42;101829.69;5036930;28;20564;-61
2023/08/22 06:28:21;;;;;;;5.43;3.70;;;22.70;70.50;;;25.62;45.51;101819.38;5035603;28;20220;-62
2023/08/22 06:30:49;;;;;;;7.43;4.90;;;22.70;70.50;;;25.63;45.77;101821.81;5034932;28;20285;-64
2023/08/22 06:33:16;;;;;;;5.80;4.23;;;22.70;70.70;;;25.66;45.12;101823.22;5030686;28;20263;-60
2023/08/22 06:35:46;;;;;;;5.57;3.50;;;22.70;70.70;;;25.70;45.12;101827.06;5014867;28;20233;-62
2023/08/22 06:38:13;;;;;;;5.37;3.00;;;22.80;70.80;;;25.69;45.10;101830.81;5015911;28;20791;-61
2023/08/22 06:40:40;;;;;;;4.03;3.37;;;22.80;70.80;;;25.68;45.83;101829.16;5014745;28;20714;-61
2023/08/22 06:43:07;;;;;;;5.27;3.40;;;22.80;70.80;;;25.65;45.72;101837.78;5021087;28;20268;-61
2023/08/22 06:45:34;;;;;;;6.83;4.40;;;22.80;70.80;;;25.58;45.45;101829.03;5035193;28;20233;-60
2023/08/22 06:48:03;;;;;;;3.97;2.97;;;22.80;70.60;;;25.48;45.38;101830.50;5035471;28;20241;-61
2023/08/22 06:50:31;;;;;;;5.33;3.63;;;22.70;70.70;;;25.40;46.41;101838.97;5035491;28;20218;-61
2023/08/22 06:52:58;;;;;;;4.07;2.97;;;22.70;71.30;;;25.36;45.97;101837.84;5035396;28;20198;-62
2023/08/22 06:55:25;;;;;;;4.27;3.20;;;22.60;71.10;;;25.38;46.47;101841.13;5034474;28;20198;-60
2023/08/22 06:57:52;;;;;;;4.57;3.50;;;22.60;71.40;;;25.40;46.55;101832.78;5033765;28;20198;-63
2023/08/22 07:00:21;;;;;;;5.23;4.33;;;22.60;71.70;;;25.42;45.83;101831.47;5034525;28;20269;-61
2023/08/22 07:02:48;;;;;;;6.07;3.40;;;22.60;71.60;;;25.47;46.49;101844.22;5035208;28;20195;-61
2023/08/22 07:05:17;;;;;;;6.27;3.70;;;22.60;71.60;;;25.51;45.99;101830.00;5034376;28;20207;-61
2023/08/22 07:07:45;;;;;;;5.00;3.00;;;22.60;71.80;;;25.55;46.28;101835.75;5034873;28;20575;-62
2023/08/22 07:10:12;;;;;;;7.77;3.40;;;22.70;72.00;;;25.64;46.55;101833.44;5034439;28;20245;-61
2023/08/22 07:12:44;;;;;;;7.37;3.83;;;22.70;72.00;;;25.75;46.28;101835.22;5034729;28;20190;-63
2023/08/22 07:15:11;;;;;;;6.97;3.57;;;22.80;72.00;;;25.82;45.36;101825.06;5034208;28;20659;-61
2023/08/22 07:17:38;;;;;;;7.90;3.70;;;22.90;71.50;;;25.84;45.84;101822.94;5034336;28;20201;-63
2023/08/22 07:20:11;;;;;;;4.27;3.20;;;23.00;71.50;;;25.92;45.37;101825.19;5033963;28;20234;-62
2023/08/22 07:22:40;;;;;;;5.50;3.77;;;23.00;71.40;;;26.04;45.25;101812.41;5034873;28;20574;-62
2023/08/22 07:25:08;;;;;;;4.27;3.37;;;23.10;71.40;;;26.17;45.80;101828.28;5033670;28;20248;-63
2023/08/22 07:27:35;;;;;;;4.63;3.23;;;23.20;71.40;;;26.35;45.55;101825.25;5034413;28;20592;-61
2023/08/22 07:30:04;;;;;;;5.87;3.70;;;23.40;71.20;;;26.55;44.93;101820.09;5031576;28;20217;-63
2023/08/22 07:32:31;;;;;;;9.53;3.30;;;23.40;70.90;;;26.92;44.27;101817.50;5032672;28;20190;-62
2023/08/22 07:35:00;;;;;;;7.13;3.30;;;23.60;70.90;;;27.54;43.32;101812.34;5015172;28;20195;-61
2023/08/22 07:37:27;;;;;;;6.73;4.37;;;23.90;70.90;;;28.31;41.90;101822.53;5020626;28;20194;-61
2023/08/22 07:39:56;;;;;;;4.90;3.23;;;24.20;70.50;;;29.10;40.88;101821.06;5033265;28;20598;-63
2023/08/22 07:42:23;;;;;;;6.47;3.40;;;24.70;69.60;;;29.94;39.35;101823.97;5033953;28;20258;-63
2023/08/22 07:44:50;;;;;;;6.83;2.87;;;25.20;68.60;;;30.80;38.95;101829.00;5033202;28;20200;-62
2023/08/22 07:47:17;;;;;;;7.37;4.93;;;25.80;67.70;;;31.76;37.08;101837.16;5033765;28;20194;-61
2023/08/22 07:49:44;;;;;;;6.43;3.20;;;26.50;65.10;;;32.64;35.38;101836.66;5033159;28;20206;-62
2023/08/22 07:52:11;;;;;;;7.13;3.40;;;27.10;62.70;;;33.43;33.84;101833.72;5033376;28;20195;-62
2023/08/22 07:54:38;;;;;;;6.17;3.30;;;27.80;60.70;;;34.09;33.03;101837.97;5033728;28;20191;-62
2023/08/22 07:57:07;;;;;;;6.70;2.90;;;28.40;59.60;;;34.63;32.19;101834.34;5033216;28;20249;-62
2023/08/22 07:59:45;;;;;;;4.30;3.47;;;28.90;58.20;;;35.33;31.47;101837.28;5032495;28;20320;-62
2023/08/22 08:02:12;;;;;;;5.07;3.50;;;29.50;56.40;;;35.99;30.42;101836.34;5028568;28;20208;-63
2023/08/22 08:04:39;;;;;;;3.97;2.93;;;30.00;55.30;;;36.67;29.38;101835.66;5033366;28;20201;-62
2023/08/22 08:07:06;;;;;;;4.13;3.65;;;30.50;54.50;;;37.28;28.73;101837.22;5033848;28;20198;-61
2023/08/22 08:09:34;;;;;;;6.50;3.75;;;31.10;52.80;;;37.18;27.00;101832.88;5033553;28;20225;-61
2023/08/22 08:12:03;;;;;;;4.18;3.03;;;31.30;48.70;;;36.74;28.22;101838.72;5033721;28;20273;-62
2023/08/22 08:14:32;;;;;;;4.65;3.00;;;31.60;49.10;;;36.82;28.10;101839.84;5032791;28;20218;-62
2023/08/22 08:16:59;;;;;;;7.97;3.05;;;31.80;49.00;;;37.01;28.40;101846.66;5031562;28;20229;-62
2023/08/22 08:19:27;;;;;;;3.30;2.35;;;31.90;48.90;;;37.19;27.73;101845.47;5032545;28;20249;-64
2023/08/22 08:21:54;;;;;;;7.28;3.45;;;32.00;48.80;;;37.45;27.16;101848.19;5032461;28;20214;-64
2023/08/22 08:24:22;;;;;;;7.32;3.15;;;32.10;47.60;;;37.48;26.90;101846.72;5032360;28;20201;-62
2023/08/22 08:26:49;;;;;;;8.02;3.05;;;32.20;47.10;;;37.38;27.32;101847.06;5033124;28;20253;-61
2023/08/22 08:29:18;;;;;;;7.65;3.33;;;32.30;47.30;;;37.90;26.78;101837.50;5032383;28;20197;-63
2023/08/22 08:31:47;;;;;;;4.43;3.38;;;32.20;47.20;;;38.71;25.94;101845.38;5032759;28;20576;-62
2023/08/22 08:34:14;;;;;;;10.75;4.53;;;32.50;46.80;;;39.45;25.17;101842.56;5018766;28;20245;-62
2023/08/22 08:36:41;;;;;;;5.82;3.53;;;32.90;46.60;;;39.86;24.87;101845.16;5012807;28;20203;-63
2023/08/22 08:39:08;;;;;;;6.13;3.13;;;33.20;45.30;;;39.65;24.81;101853.56;5012686;28;20658;-61
2023/08/22 08:41:42;;;;;;;8.45;3.15;;;33.40;44.30;;;39.21;24.78;101852.41;5022981;28;20194;-62
2023/08/22 08:44:13;;;;;;;9.68;3.30;;;33.50;43.70;;;38.73;25.03;101854.94;5024363;28;20207;-63
2023/08/22 08:46:43;;;;;;;3.67;3.38;;;33.40;43.40;;;38.31;25.32;101854.13;5026355;28;20210;-62
2023/08/22 08:49:14;;;;;;;6.43;3.03;;;33.20;43.40;;;38.07;25.96;101853.91;5024908;28;20194;-64
2023/08/22 08:51:42;;;;;;;5.38;3.20;;;33.00;43.80;;;38.39;25.65;101847.75;5015325;28;20191;-63
2023/08/22 08:54:11;;;;;;;3.47;3.15;;;33.00;44.10;;;38.91;25.16;101839.06;5013001;28;20180;-63
2023/08/22 08:56:38;;;;;;;5.45;3.13;;;33.00;44.10;;;39.15;24.19;101842.75;5017601;28;20528;-63
2023/08/22 08:59:05;;;;;;;3.80;3.42;;;33.20;43.60;;;39.40;24.83;101845.53;5032530;28;20211;-63
2023/08/22 09:01:34;;;;;;;6.40;3.78;;;33.30;43.60;;;39.35;23.98;101837.50;5032483;28;20943;-63
2023/08/22 09:04:02;;;;;;;5.00;4.13;;;33.50;43.30;;;39.11;24.32;101843.72;5031870;28;20222;-61
2023/08/22 09:06:30;;;;;;;5.28;3.53;;;33.50;42.20;;;38.95;24.37;101834.50;5034284;28;20277;-61
2023/08/22 09:09:07;;;;;;;5.18;3.72;;;33.50;42.10;;;38.86;24.70;101834.59;5031753;28;20194;-62
2023/08/22 09:11:34;;;;;;;3.17;2.85;;;33.40;41.90;;;38.75;24.32;101843.63;5032424;28;20190;-62
2023/08/22 09:14:06;;;;;;;7.18;3.22;;;33.40;41.60;;;38.76;24.63;101837.75;5032652;28;20277;-62
2023/08/22 09:16:33;;;;;;;4.03;2.60;;;33.40;41.50;;;38.89;23.95;101839.44;5032485;28;20213;-62
2023/08/22 09:19:01;;;;;;;5.22;3.40;;;33.40;41.20;;;39.10;23.82;101842.13;5029938;28;20210;-62
2023/08/22 09:21:31;;;;;;;3.42;3.13;;;33.40;41.30;;;39.31;23.68;101845.66;5023865;28;20226;-64
2023/08/22 09:24:08;;;;;;;6.00;3.58;;;33.50;41.20;;;39.51;23.37;101846.72;5032686;28;20205;-62
2023/08/22 09:26:36;;;;;;;3.65;3.15;;;33.60;41.10;;;39.64;23.50;101851.13;5032242;28;20194;-62
2023/08/22 09:29:05;;;;;;;7.00;3.30;;;33.80;41.00;;;39.85;23.19;101847.09;5032369;28;20222;-62
2023/08/22 09:31:35;;;;;;;9.23;3.42;;;34.00;41.00;;;40.15;22.72;101852.41;5032138;28;20273;-61
2023/08/22 09:34:11;;;;;;;4.53;3.10;;;34.10;40.40;;;40.94;21.89;101844.13;5023950;28;20229;-62
2023/08/22 09:36:45;;;;;;;4.00;3.42;;;34.40;40.10;;;41.81;21.74;101846.84;5035395;28;20196;-62
2023/08/22 09:39:15;;;;;;;4.95;3.50;;;34.70;39.90;;;42.32;20.58;101842.88;5033768;28;20245;-63
2023/08/22 09:41:43;;;;;;;6.20;2.58;;;35.10;38.90;;;42.42;20.48;101850.63;5036344;28;20189;-64
2023/08/22 09:44:11;;;;;;;4.38;2.53;;;35.40;37.80;;;42.48;19.91;101851.94;5036222;28;20540;-62
2023/08/22 09:46:42;;;;;;;2.78;1.85;;;35.60;36.40;;;41.94;19.74;101848.31;5036835;28;20221;-62
2023/08/22 09:49:14;;;;;;;3.60;2.65;;;35.70;35.40;;;41.25;20.71;101853.66;5035866;28;20567;-61
2023/08/22 09:51:51;;;;;;;3.67;1.63;;;35.60;34.90;;;40.99;20.10;101846.66;5035551;28;20183;-63
2023/08/22 09:54:23;;;;;;;1.95;1.75;;;35.50;33.00;;;40.88;19.64;101844.75;5018021;28;20207;-62
2023/08/22 09:56:51;;;;;;;1.83;1.45;;;35.40;32.60;;;40.62;19.78;101841.63;5034866;28;20218;-60
2023/08/22 09:59:20;;;;;;;2.83;1.92;;;35.30;32.50;;;40.13;19.67;101840.91;5034814;28;20384;-61
2023/08/22 10:01:48;;;;;;;1.33;1.30;;;35.20;32.10;;;39.40;20.16;101846.34;5035588;28;20194;-63
2023/08/22 10:04:18;;;;;;;2.60;1.88;;;34.90;31.60;;;38.55;20.73;101843.25;5035769;28;20195;-61
2023/08/22 10:06:49;;;;;;;2.65;1.67;;;34.50;31.90;;;37.80;21.36;101843.38;5035932;28;20222;-63
2023/08/22 10:09:19;;;;;;;3.70;2.15;;;34.10;32.50;;;37.21;22.40;101843.22;5034599;28;20268;-62
2023/08/22 10:11:50;;;;;;;3.60;1.70;;;33.70;34.10;;;36.91;22.64;101849.72;5034629;28;20221;-62
2023/08/22 10:14:29;;;;;;;1.83;1.42;;;33.30;34.10;;;36.78;22.76;101850.66;5035109;28;20186;-61
2023/08/22 10:16:58;;;;;;;2.22;1.58;;;33.00;34.20;;;36.92;22.43;101845.84;5033609;28;20622;-61